sensor_id;sensor_type;location;lat;lon;timestamp;P1;durP1;ratioP1;P2;durP2;ratioP2
1585;SDS011;786;48.718;9.514;2024-01-30T00:00:15;11.48;;;8.45;;
1585;SDS011;786;48.718;9.514;2024-01-30T00:02:42;13.57;;;8.77;;
1585;SDS011;786;48.718;9.514;2024-01-30T00:05:12;10.18;;;7.43;;
1585;SDS011;786;48.718;9.514;2024-01-30T00:07:38;11.20;;;7.60;;
1585;SDS011;786;48.718;9.514;2024-01-30T00:10:05;12.48;;;8.73;;
1585;SDS011;786;48.718;9.514;2024-01-30T00:12:32;13.23;;;8.32;;
1585;SDS011;786;48.718;9.514;2024-01-30T00:14:58;12.82;;;8.77;;
1585;SDS011;786;48.718;9.514;2024-01-30T00:17:24;12.88;;;8.20;;
1585;SDS011;786;48.718;9.514;2024-01-30T00:19:51;11.32;;;8.52;;
1585;SDS011;786;48.718;9.514;2024-01-30T00:22:19;15.00;;;8.70;;
1585;SDS011;786;48.718;9.514;2024-01-30T00:24:45;16.38;;;8.27;;
1585;SDS011;786;48.718;9.514;2024-01-30T00:27:11;15.27;;;8.88;;
1585;SDS011;786;48.718;9.514;2024-01-30T00:29:38;11.40;;;8.60;;
1585;SDS011;786;48.718;9.514;2024-01-30T00:32:04;12.52;;;8.68;;
1585;SDS011;786;48.718;9.514;2024-01-30T00:34:31;10.18;;;7.97;;
1585;SDS011;786;48.718;9.514;2024-01-30T00:36:58;12.60;;;8.27;;
1585;SDS011;786;48.718;9.514;2024-01-30T00:39:25;12.27;;;8.00;;
1585;SDS011;786;48.718;9.514;2024-01-30T00:41:52;14.43;;;8.32;;
1585;SDS011;786;48.718;9.514;2024-01-30T00:44:18;14.05;;;8.40;;
1585;SDS011;786;48.718;9.514;2024-01-30T00:46:45;12.02;;;7.95;;
1585;SDS011;786;48.718;9.514;2024-01-30T00:49:11;12.57;;;8.77;;
1585;SDS011;786;48.718;9.514;2024-01-30T00:51:38;11.60;;;8.38;;
1585;SDS011;786;48.718;9.514;2024-01-30T00:54:04;13.27;;;7.40;;
1585;SDS011;786;48.718;9.514;2024-01-30T00:56:32;10.35;;;7.80;;
1585;SDS011;786;48.718;9.514;2024-01-30T00:58:59;11.23;;;7.82;;
1585;SDS011;786;48.718;9.514;2024-01-30T01:01:25;12.93;;;8.13;;
1585;SDS011;786;48.718;9.514;2024-01-30T01:03:51;13.88;;;8.30;;
1585;SDS011;786;48.718;9.514;2024-01-30T01:06:18;10.77;;;9.13;;
1585;SDS011;786;48.718;9.514;2024-01-30T01:08:44;16.70;;;8.90;;
1585;SDS011;786;48.718;9.514;2024-01-30T01:11:11;15.93;;;10.27;;
1585;SDS011;786;48.718;9.514;2024-01-30T01:13:38;14.95;;;8.68;;
1585;SDS011;786;48.718;9.514;2024-01-30T01:16:05;15.75;;;9.60;;
1585;SDS011;786;48.718;9.514;2024-01-30T01:18:31;10.63;;;8.07;;
1585;SDS011;786;48.718;9.514;2024-01-30T01:20:58;13.30;;;8.65;;
1585;SDS011;786;48.718;9.514;2024-01-30T01:23:25;13.48;;;9.73;;
1585;SDS011;786;48.718;9.514;2024-01-30T01:25:51;11.75;;;8.43;;
1585;SDS011;786;48.718;9.514;2024-01-30T01:28:17;13.82;;;9.02;;
1585;SDS011;786;48.718;9.514;2024-01-30T01:30:46;12.77;;;8.25;;
1585;SDS011;786;48.718;9.514;2024-01-30T01:33:12;14.35;;;9.40;;
1585;SDS011;786;48.718;9.514;2024-01-30T01:35:39;13.10;;;8.45;;
1585;SDS011;786;48.718;9.514;2024-01-30T01:38:05;12.70;;;7.72;;
1585;SDS011;786;48.718;9.514;2024-01-30T01:40:32;13.05;;;8.88;;
1585;SDS011;786;48.718;9.514;2024-01-30T01:42:58;10.77;;;7.95;;
1585;SDS011;786;48.718;9.514;2024-01-30T01:45:24;12.82;;;8.90;;
1585;SDS011;786;48.718;9.514;2024-01-30T01:47:52;14.55;;;8.95;;
1585;SDS011;786;48.718;9.514;2024-01-30T01:50:19;12.63;;;8.65;;
1585;SDS011;786;48.718;9.514;2024-01-30T01:52:47;13.88;;;8.27;;
1585;SDS011;786;48.718;9.514;2024-01-30T01:55:14;14.00;;;9.60;;
1585;SDS011;786;48.718;9.514;2024-01-30T01:57:41;14.50;;;8.32;;
1585;SDS011;786;48.718;9.514;2024-01-30T02:00:08;13.63;;;8.23;;
1585;SDS011;786;48.718;9.514;2024-01-30T02:02:35;12.60;;;7.57;;
1585;SDS011;786;48.718;9.514;2024-01-30T02:05:03;14.25;;;9.13;;
1585;SDS011;786;48.718;9.514;2024-01-30T02:07:30;12.68;;;8.65;;
1585;SDS011;786;48.718;9.514;2024-01-30T02:09:57;11.73;;;7.68;;
1585;SDS011;786;48.718;9.514;2024-01-30T02:12:23;14.30;;;8.77;;
1585;SDS011;786;48.718;9.514;2024-01-30T02:14:50;13.07;;;9.13;;
1585;SDS011;786;48.718;9.514;2024-01-30T02:17:16;12.00;;;8.80;;
1585;SDS011;786;48.718;9.514;2024-01-30T02:19:43;12.18;;;8.32;;
1585;SDS011;786;48.718;9.514;2024-01-30T02:22:10;12.80;;;7.93;;
1585;SDS011;786;48.718;9.514;2024-01-30T02:24:37;12.90;;;8.20;;
1585;SDS011;786;48.718;9.514;2024-01-30T02:27:03;11.63;;;8.10;;
1585;SDS011;786;48.718;9.514;2024-01-30T02:29:30;10.88;;;7.50;;
1585;SDS011;786;48.718;9.514;2024-01-30T02:31:56;13.98;;;9.02;;
1585;SDS011;786;48.718;9.514;2024-01-30T02:34:23;12.68;;;7.97;;
1585;SDS011;786;48.718;9.514;2024-01-30T02:36:49;12.32;;;8.07;;
1585;SDS011;786;48.718;9.514;2024-01-30T02:39:17;11.77;;;8.30;;
1585;SDS011;786;48.718;9.514;2024-01-30T02:41:43;13.55;;;8.25;;
1585;SDS011;786;48.718;9.514;2024-01-30T02:44:10;13.52;;;8.40;;
1585;SDS011;786;48.718;9.514;2024-01-30T02:46:36;13.38;;;7.10;;
1585;SDS011;786;48.718;9.514;2024-01-30T02:49:02;13.55;;;8.32;;
1585;SDS011;786;48.718;9.514;2024-01-30T02:51:29;13.18;;;8.95;;
1585;SDS011;786;48.718;9.514;2024-01-30T02:53:55;11.98;;;7.63;;
1585;SDS011;786;48.718;9.514;2024-01-30T02:56:23;13.52;;;8.25;;
1585;SDS011;786;48.718;9.514;2024-01-30T02:58:49;11.38;;;7.47;;
1585;SDS011;786;48.718;9.514;2024-01-30T03:01:16;10.95;;;8.23;;
1585;SDS011;786;48.718;9.514;2024-01-30T03:03:42;13.05;;;7.82;;
1585;SDS011;786;48.718;9.514;2024-01-30T03:06:08;13.50;;;8.40;;
1585;SDS011;786;48.718;9.514;2024-01-30T03:08:35;14.10;;;8.48;;
1585;SDS011;786;48.718;9.514;2024-01-30T03:11:01;16.20;;;9.10;;
1585;SDS011;786;48.718;9.514;2024-01-30T03:13:29;14.27;;;8.48;;
1585;SDS011;786;48.718;9.514;2024-01-30T03:15:55;12.65;;;8.48;;
1585;SDS011;786;48.718;9.514;2024-01-30T03:18:22;11.93;;;8.88;;
1585;SDS011;786;48.718;9.514;2024-01-30T03:20:48;35.75;;;17.42;;
1585;SDS011;786;48.718;9.514;2024-01-30T03:23:15;73.93;;;35.35;;
1585;SDS011;786;48.718;9.514;2024-01-30T03:25:41;52.05;;;27.23;;
1585;SDS011;786;48.718;9.514;2024-01-30T03:28:08;19.90;;;12.63;;
1585;SDS011;786;48.718;9.514;2024-01-30T03:30:35;15.40;;;9.52;;
1585;SDS011;786;48.718;9.514;2024-01-30T03:33:02;15.40;;;9.60;;
1585;SDS011;786;48.718;9.514;2024-01-30T03:35:28;13.32;;;8.77;;
1585;SDS011;786;48.718;9.514;2024-01-30T03:37:55;12.90;;;8.60;;
1585;SDS011;786;48.718;9.514;2024-01-30T03:40:21;14.23;;;8.65;;
1585;SDS011;786;48.718;9.514;2024-01-30T03:42:47;14.60;;;8.93;;
1585;SDS011;786;48.718;9.514;2024-01-30T03:45:14;15.05;;;8.98;;
1585;SDS011;786;48.718;9.514;2024-01-30T03:47:44;15.82;;;9.20;;
1585;SDS011;786;48.718;9.514;2024-01-30T03:50:10;16.27;;;9.73;;
1585;SDS011;786;48.718;9.514;2024-01-30T03:52:37;15.73;;;9.75;;
1585;SDS011;786;48.718;9.514;2024-01-30T03:55:03;13.82;;;9.00;;
1585;SDS011;786;48.718;9.514;2024-01-30T03:57:30;15.52;;;8.82;;
1585;SDS011;786;48.718;9.514;2024-01-30T03:59:56;11.60;;;7.55;;
1585;SDS011;786;48.718;9.514;2024-01-30T04:02:23;12.77;;;8.13;;
1585;SDS011;786;48.718;9.514;2024-01-30T04:04:51;14.20;;;8.98;;
1585;SDS011;786;48.718;9.514;2024-01-30T04:07:17;11.38;;;8.57;;
1585;SDS011;786;48.718;9.514;2024-01-30T04:09:43;12.05;;;8.05;;
1585;SDS011;786;48.718;9.514;2024-01-30T04:12:12;13.88;;;9.32;;
1585;SDS011;786;48.718;9.514;2024-01-30T04:14:39;12.07;;;8.02;;
1585;SDS011;786;48.718;9.514;2024-01-30T04:17:05;10.50;;;7.68;;
1585;SDS011;786;48.718;9.514;2024-01-30T04:19:31;12.05;;;8.45;;
1585;SDS011;786;48.718;9.514;2024-01-30T04:21:59;16.05;;;8.80;;
1585;SDS011;786;48.718;9.514;2024-01-30T04:24:25;14.73;;;9.07;;
1585;SDS011;786;48.718;9.514;2024-01-30T04:26:52;12.10;;;8.13;;
1585;SDS011;786;48.718;9.514;2024-01-30T04:29:18;14.55;;;10.20;;
1585;SDS011;786;48.718;9.514;2024-01-30T04:31:45;15.65;;;9.10;;
1585;SDS011;786;48.718;9.514;2024-01-30T04:34:11;13.85;;;9.95;;
1585;SDS011;786;48.718;9.514;2024-01-30T04:36:37;13.73;;;8.50;;
1585;SDS011;786;48.718;9.514;2024-01-30T04:39:05;12.75;;;8.85;;
1585;SDS011;786;48.718;9.514;2024-01-30T04:41:33;13.55;;;8.88;;
1585;SDS011;786;48.718;9.514;2024-01-30T04:44:00;14.38;;;8.50;;
1585;SDS011;786;48.718;9.514;2024-01-30T04:46:26;14.95;;;8.85;;
1585;SDS011;786;48.718;9.514;2024-01-30T04:48:53;12.30;;;8.60;;
1585;SDS011;786;48.718;9.514;2024-01-30T04:51:19;11.30;;;7.40;;
1585;SDS011;786;48.718;9.514;2024-01-30T04:53:46;13.35;;;8.15;;
1585;SDS011;786;48.718;9.514;2024-01-30T04:56:13;11.13;;;8.07;;
1585;SDS011;786;48.718;9.514;2024-01-30T04:58:40;12.55;;;7.65;;
1585;SDS011;786;48.718;9.514;2024-01-30T05:01:06;11.38;;;8.02;;
1585;SDS011;786;48.718;9.514;2024-01-30T05:03:33;12.50;;;8.25;;
1585;SDS011;786;48.718;9.514;2024-01-30T05:06:00;11.65;;;7.57;;
1585;SDS011;786;48.718;9.514;2024-01-30T05:08:26;13.38;;;8.40;;
1585;SDS011;786;48.718;9.514;2024-01-30T05:10:52;14.27;;;9.05;;
1585;SDS011;786;48.718;9.514;2024-01-30T05:13:20;13.57;;;8.93;;
1585;SDS011;786;48.718;9.514;2024-01-30T05:15:46;12.85;;;7.38;;
1585;SDS011;786;48.718;9.514;2024-01-30T05:18:13;19.52;;;11.43;;
1585;SDS011;786;48.718;9.514;2024-01-30T05:20:39;15.63;;;10.75;;
1585;SDS011;786;48.718;9.514;2024-01-30T05:23:05;50.88;;;25.25;;
1585;SDS011;786;48.718;9.514;2024-01-30T05:25:32;18.50;;;11.55;;
1585;SDS011;786;48.718;9.514;2024-01-30T05:27:58;16.88;;;10.25;;
1585;SDS011;786;48.718;9.514;2024-01-30T05:30:26;13.10;;;8.85;;
1585;SDS011;786;48.718;9.514;2024-01-30T05:32:52;13.80;;;8.95;;
1585;SDS011;786;48.718;9.514;2024-01-30T05:35:19;15.48;;;9.38;;
1585;SDS011;786;48.718;9.514;2024-01-30T05:37:46;15.73;;;9.18;;
1585;SDS011;786;48.718;9.514;2024-01-30T05:40:13;15.18;;;10.00;;
1585;SDS011;786;48.718;9.514;2024-01-30T05:42:40;12.85;;;9.73;;
1585;SDS011;786;48.718;9.514;2024-01-30T05:45:06;12.60;;;9.15;;
1585;SDS011;786;48.718;9.514;2024-01-30T05:47:34;11.35;;;8.27;;
1585;SDS011;786;48.718;9.514;2024-01-30T05:50:01;19.17;;;9.30;;
1585;SDS011;786;48.718;9.514;2024-01-30T05:52:28;13.13;;;9.02;;
1585;SDS011;786;48.718;9.514;2024-01-30T05:54:54;18.10;;;10.00;;
1585;SDS011;786;48.718;9.514;2024-01-30T05:57:21;17.25;;;10.52;;
1585;SDS011;786;48.718;9.514;2024-01-30T05:59:47;19.65;;;11.65;;
1585;SDS011;786;48.718;9.514;2024-01-30T06:02:13;19.23;;;11.55;;
1585;SDS011;786;48.718;9.514;2024-01-30T06:04:41;17.63;;;10.05;;
1585;SDS011;786;48.718;9.514;2024-01-30T06:07:09;15.05;;;10.32;;
1585;SDS011;786;48.718;9.514;2024-01-30T06:09:35;15.73;;;8.83;;
1585;SDS011;786;48.718;9.514;2024-01-30T06:12:04;18.13;;;9.63;;
1585;SDS011;786;48.718;9.514;2024-01-30T06:14:31;13.30;;;8.90;;
1585;SDS011;786;48.718;9.514;2024-01-30T06:16:57;15.23;;;9.10;;
1585;SDS011;786;48.718;9.514;2024-01-30T06:19:24;13.07;;;8.57;;
1585;SDS011;786;48.718;9.514;2024-01-30T06:21:52;12.68;;;8.15;;
1585;SDS011;786;48.718;9.514;2024-01-30T06:24:18;14.20;;;9.82;;
1585;SDS011;786;48.718;9.514;2024-01-30T06:26:45;17.98;;;9.88;;
1585;SDS011;786;48.718;9.514;2024-01-30T06:29:11;16.80;;;10.50;;
1585;SDS011;786;48.718;9.514;2024-01-30T06:31:40;15.85;;;9.07;;
1585;SDS011;786;48.718;9.514;2024-01-30T06:34:06;14.93;;;9.10;;
1585;SDS011;786;48.718;9.514;2024-01-30T06:36:32;15.68;;;9.63;;
1585;SDS011;786;48.718;9.514;2024-01-30T06:39:00;17.98;;;9.02;;
1585;SDS011;786;48.718;9.514;2024-01-30T06:41:27;14.32;;;9.00;;
1585;SDS011;786;48.718;9.514;2024-01-30T06:43:53;13.77;;;8.20;;
1585;SDS011;786;48.718;9.514;2024-01-30T06:46:22;18.33;;;8.70;;
1585;SDS011;786;48.718;9.514;2024-01-30T06:48:48;10.85;;;6.35;;
1585;SDS011;786;48.718;9.514;2024-01-30T06:51:14;11.90;;;7.10;;
1585;SDS011;786;48.718;9.514;2024-01-30T06:53:41;11.63;;;7.78;;
1585;SDS011;786;48.718;9.514;2024-01-30T06:56:08;11.65;;;7.30;;
1585;SDS011;786;48.718;9.514;2024-01-30T06:58:35;13.32;;;7.68;;
1585;SDS011;786;48.718;9.514;2024-01-30T07:01:02;12.23;;;7.20;;
1585;SDS011;786;48.718;9.514;2024-01-30T07:03:28;12.10;;;8.20;;
1585;SDS011;786;48.718;9.514;2024-01-30T07:05:55;16.65;;;7.38;;
1585;SDS011;786;48.718;9.514;2024-01-30T07:08:21;12.45;;;7.88;;
1585;SDS011;786;48.718;9.514;2024-01-30T07:10:47;14.05;;;8.23;;
1585;SDS011;786;48.718;9.514;2024-01-30T07:13:15;10.63;;;7.30;;
1585;SDS011;786;48.718;9.514;2024-01-30T07:15:42;13.10;;;7.68;;
1585;SDS011;786;48.718;9.514;2024-01-30T07:18:08;10.55;;;7.25;;
1585;SDS011;786;48.718;9.514;2024-01-30T07:20:35;15.13;;;9.45;;
1585;SDS011;786;48.718;9.514;2024-01-30T07:23:02;15.55;;;9.73;;
1585;SDS011;786;48.718;9.514;2024-01-30T07:25:29;13.75;;;8.48;;
1585;SDS011;786;48.718;9.514;2024-01-30T07:27:55;16.67;;;8.70;;
1585;SDS011;786;48.718;9.514;2024-01-30T07:30:23;13.77;;;8.55;;
1585;SDS011;786;48.718;9.514;2024-01-30T07:32:50;10.98;;;8.10;;
1585;SDS011;786;48.718;9.514;2024-01-30T07:35:16;19.38;;;10.07;;
1585;SDS011;786;48.718;9.514;2024-01-30T07:37:42;12.02;;;7.47;;
1585;SDS011;786;48.718;9.514;2024-01-30T07:40:09;10.77;;;7.15;;
1585;SDS011;786;48.718;9.514;2024-01-30T07:42:35;10.43;;;6.85;;
1585;SDS011;786;48.718;9.514;2024-01-30T07:45:02;13.43;;;8.55;;
1585;SDS011;786;48.718;9.514;2024-01-30T07:47:30;13.18;;;8.90;;
1585;SDS011;786;48.718;9.514;2024-01-30T07:49:56;23.42;;;11.52;;
1585;SDS011;786;48.718;9.514;2024-01-30T07:52:22;19.15;;;11.43;;
1585;SDS011;786;48.718;9.514;2024-01-30T07:54:49;17.77;;;11.70;;
1585;SDS011;786;48.718;9.514;2024-01-30T07:57:15;20.42;;;11.80;;
1585;SDS011;786;48.718;9.514;2024-01-30T07:59:42;15.68;;;11.20;;
1585;SDS011;786;48.718;9.514;2024-01-30T08:02:09;20.75;;;13.23;;
1585;SDS011;786;48.718;9.514;2024-01-30T08:04:37;11.27;;;8.43;;
1585;SDS011;786;48.718;9.514;2024-01-30T08:07:03;12.15;;;8.32;;
1585;SDS011;786;48.718;9.514;2024-01-30T08:09:29;11.82;;;8.13;;
1585;SDS011;786;48.718;9.514;2024-01-30T08:11:56;11.50;;;7.38;;
1585;SDS011;786;48.718;9.514;2024-01-30T08:14:22;13.10;;;9.38;;
1585;SDS011;786;48.718;9.514;2024-01-30T08:16:49;10.75;;;8.82;;
1585;SDS011;786;48.718;9.514;2024-01-30T08:19:15;14.25;;;10.55;;
1585;SDS011;786;48.718;9.514;2024-01-30T08:21:43;15.73;;;12.05;;
1585;SDS011;786;48.718;9.514;2024-01-30T08:24:09;17.02;;;14.38;;
1585;SDS011;786;48.718;9.514;2024-01-30T08:26:35;38.88;;;23.13;;
1585;SDS011;786;48.718;9.514;2024-01-30T08:29:02;18.13;;;12.57;;
1585;SDS011;786;48.718;9.514;2024-01-30T08:31:28;15.82;;;11.88;;
1585;SDS011;786;48.718;9.514;2024-01-30T08:33:55;15.98;;;10.52;;
1585;SDS011;786;48.718;9.514;2024-01-30T08:36:21;17.33;;;12.65;;
1585;SDS011;786;48.718;9.514;2024-01-30T08:38:49;14.95;;;11.02;;
1585;SDS011;786;48.718;9.514;2024-01-30T08:41:15;17.27;;;11.48;;
1585;SDS011;786;48.718;9.514;2024-01-30T08:43:41;12.85;;;11.25;;
1585;SDS011;786;48.718;9.514;2024-01-30T08:46:09;15.45;;;11.45;;
1585;SDS011;786;48.718;9.514;2024-01-30T08:48:36;19.17;;;11.65;;
1585;SDS011;786;48.718;9.514;2024-01-30T08:51:02;14.10;;;10.25;;
1585;SDS011;786;48.718;9.514;2024-01-30T08:53:33;15.00;;;10.68;;
1585;SDS011;786;48.718;9.514;2024-01-30T08:56:00;13.90;;;10.07;;
1585;SDS011;786;48.718;9.514;2024-01-30T08:58:27;14.75;;;10.60;;
1585;SDS011;786;48.718;9.514;2024-01-30T09:00:54;12.82;;;10.70;;
1585;SDS011;786;48.718;9.514;2024-01-30T09:03:20;14.85;;;11.93;;
1585;SDS011;786;48.718;9.514;2024-01-30T09:05:46;14.27;;;10.82;;
1585;SDS011;786;48.718;9.514;2024-01-30T09:08:13;13.45;;;11.90;;
1585;SDS011;786;48.718;9.514;2024-01-30T09:10:39;10.55;;;8.98;;
1585;SDS011;786;48.718;9.514;2024-01-30T09:13:07;12.65;;;10.02;;
1585;SDS011;786;48.718;9.514;2024-01-30T09:15:33;14.60;;;10.45;;
1585;SDS011;786;48.718;9.514;2024-01-30T09:18:00;28.27;;;23.10;;
1585;SDS011;786;48.718;9.514;2024-01-30T09:20:27;19.88;;;16.65;;
1585;SDS011;786;48.718;9.514;2024-01-30T09:22:53;15.63;;;11.70;;
1585;SDS011;786;48.718;9.514;2024-01-30T09:25:19;15.40;;;12.77;;
1585;SDS011;786;48.718;9.514;2024-01-30T09:27:46;14.10;;;11.02;;
1585;SDS011;786;48.718;9.514;2024-01-30T09:30:14;11.85;;;9.07;;
1585;SDS011;786;48.718;9.514;2024-01-30T09:32:40;11.85;;;9.40;;
1585;SDS011;786;48.718;9.514;2024-01-30T09:35:07;11.55;;;8.90;;
1585;SDS011;786;48.718;9.514;2024-01-30T09:37:33;12.98;;;10.02;;
1585;SDS011;786;48.718;9.514;2024-01-30T09:40:00;12.13;;;9.02;;
1585;SDS011;786;48.718;9.514;2024-01-30T09:42:28;11.25;;;9.85;;
1585;SDS011;786;48.718;9.514;2024-01-30T09:44:57;13.05;;;9.52;;
1585;SDS011;786;48.718;9.514;2024-01-30T09:47:24;10.88;;;9.65;;
1585;SDS011;786;48.718;9.514;2024-01-30T09:49:51;10.75;;;8.77;;
1585;SDS011;786;48.718;9.514;2024-01-30T09:52:18;10.90;;;8.85;;
1585;SDS011;786;48.718;9.514;2024-01-30T09:54:44;12.38;;;9.32;;
1585;SDS011;786;48.718;9.514;2024-01-30T09:57:11;11.23;;;9.93;;
1585;SDS011;786;48.718;9.514;2024-01-30T09:59:38;10.13;;;8.88;;
1585;SDS011;786;48.718;9.514;2024-01-30T10:02:04;10.38;;;9.27;;
1585;SDS011;786;48.718;9.514;2024-01-30T10:04:32;10.50;;;8.10;;
1585;SDS011;786;48.718;9.514;2024-01-30T10:06:59;11.65;;;8.80;;
1585;SDS011;786;48.718;9.514;2024-01-30T10:09:27;9.57;;;8.20;;
1585;SDS011;786;48.718;9.514;2024-01-30T10:11:53;11.00;;;8.73;;
1585;SDS011;786;48.718;9.514;2024-01-30T10:14:19;10.02;;;8.85;;
1585;SDS011;786;48.718;9.514;2024-01-30T10:16:46;9.80;;;8.30;;
1585;SDS011;786;48.718;9.514;2024-01-30T10:19:13;10.43;;;8.25;;
1585;SDS011;786;48.718;9.514;2024-01-30T10:21:40;10.85;;;8.90;;
1585;SDS011;786;48.718;9.514;2024-01-30T10:24:07;11.60;;;8.88;;
1585;SDS011;786;48.718;9.514;2024-01-30T10:26:33;8.98;;;7.63;;
1585;SDS011;786;48.718;9.514;2024-01-30T10:28:59;10.02;;;7.80;;
1585;SDS011;786;48.718;9.514;2024-01-30T10:31:26;9.07;;;8.05;;
1585;SDS011;786;48.718;9.514;2024-01-30T10:33:52;8.50;;;7.57;;
1585;SDS011;786;48.718;9.514;2024-01-30T10:36:18;8.88;;;7.78;;
1585;SDS011;786;48.718;9.514;2024-01-30T10:38:48;11.00;;;9.43;;
1585;SDS011;786;48.718;9.514;2024-01-30T10:41:17;11.30;;;9.77;;
1585;SDS011;786;48.718;9.514;2024-01-30T10:43:47;10.48;;;7.95;;
1585;SDS011;786;48.718;9.514;2024-01-30T10:46:18;11.02;;;8.50;;
1585;SDS011;786;48.718;9.514;2024-01-30T10:48:47;11.10;;;9.63;;
1585;SDS011;786;48.718;9.514;2024-01-30T10:51:17;11.32;;;8.55;;
1585;SDS011;786;48.718;9.514;2024-01-30T10:53:44;8.85;;;7.75;;
1585;SDS011;786;48.718;9.514;2024-01-30T10:56:14;9.82;;;8.15;;
1585;SDS011;786;48.718;9.514;2024-01-30T10:58:43;10.65;;;8.43;;
1585;SDS011;786;48.718;9.514;2024-01-30T11:01:09;8.88;;;7.97;;
1585;SDS011;786;48.718;9.514;2024-01-30T11:03:36;9.63;;;8.63;;
1585;SDS011;786;48.718;9.514;2024-01-30T11:06:03;7.70;;;6.88;;
1585;SDS011;786;48.718;9.514;2024-01-30T11:08:32;8.85;;;7.95;;
1585;SDS011;786;48.718;9.514;2024-01-30T11:10:58;10.82;;;7.15;;
1585;SDS011;786;48.718;9.514;2024-01-30T11:13:27;8.48;;;7.18;;
1585;SDS011;786;48.718;9.514;2024-01-30T11:15:55;10.13;;;7.45;;
1585;SDS011;786;48.718;9.514;2024-01-30T11:18:24;9.95;;;7.90;;
1585;SDS011;786;48.718;9.514;2024-01-30T11:20:51;9.02;;;7.20;;
1585;SDS011;786;48.718;9.514;2024-01-30T11:23:18;10.75;;;6.50;;
1585;SDS011;786;48.718;9.514;2024-01-30T11:25:44;7.45;;;6.05;;
1585;SDS011;786;48.718;9.514;2024-01-30T11:28:13;6.32;;;5.72;;
1585;SDS011;786;48.718;9.514;2024-01-30T11:30:41;7.32;;;6.63;;
1585;SDS011;786;48.718;9.514;2024-01-30T11:33:08;6.32;;;5.72;;
1585;SDS011;786;48.718;9.514;2024-01-30T11:35:36;7.25;;;5.78;;
1585;SDS011;786;48.718;9.514;2024-01-30T11:38:04;8.35;;;6.10;;
1585;SDS011;786;48.718;9.514;2024-01-30T11:40:31;7.03;;;6.00;;
1585;SDS011;786;48.718;9.514;2024-01-30T11:42:59;8.57;;;7.18;;
1585;SDS011;786;48.718;9.514;2024-01-30T11:45:27;14.02;;;8.57;;
1585;SDS011;786;48.718;9.514;2024-01-30T11:47:55;13.02;;;9.95;;
1585;SDS011;786;48.718;9.514;2024-01-30T11:50:22;11.23;;;9.60;;
1585;SDS011;786;48.718;9.514;2024-01-30T11:52:48;13.35;;;9.77;;
1585;SDS011;786;48.718;9.514;2024-01-30T11:55:15;9.50;;;8.48;;
1585;SDS011;786;48.718;9.514;2024-01-30T11:57:41;10.90;;;8.40;;
1585;SDS011;786;48.718;9.514;2024-01-30T12:00:13;9.10;;;8.20;;
1585;SDS011;786;48.718;9.514;2024-01-30T12:02:41;10.63;;;9.48;;
1585;SDS011;786;48.718;9.514;2024-01-30T12:05:09;11.35;;;8.82;;
1585;SDS011;786;48.718;9.514;2024-01-30T12:07:35;9.73;;;7.82;;
1585;SDS011;786;48.718;9.514;2024-01-30T12:10:02;11.35;;;8.55;;
1585;SDS011;786;48.718;9.514;2024-01-30T12:12:30;12.25;;;8.93;;
1585;SDS011;786;48.718;9.514;2024-01-30T12:14:57;8.32;;;7.35;;
1585;SDS011;786;48.718;9.514;2024-01-30T12:17:24;7.65;;;6.80;;
1585;SDS011;786;48.718;9.514;2024-01-30T12:20:02;9.80;;;7.78;;
1585;SDS011;786;48.718;9.514;2024-01-30T12:22:30;11.88;;;7.60;;
1585;SDS011;786;48.718;9.514;2024-01-30T12:24:56;8.80;;;7.43;;
1585;SDS011;786;48.718;9.514;2024-01-30T12:27:23;10.27;;;8.98;;
1585;SDS011;786;48.718;9.514;2024-01-30T12:29:55;7.45;;;6.65;;
1585;SDS011;786;48.718;9.514;2024-01-30T12:32:22;8.90;;;7.93;;
1585;SDS011;786;48.718;9.514;2024-01-30T12:34:48;9.57;;;7.63;;
1585;SDS011;786;48.718;9.514;2024-01-30T12:37:15;8.77;;;7.47;;
1585;SDS011;786;48.718;9.514;2024-01-30T12:39:45;10.00;;;7.28;;
1585;SDS011;786;48.718;9.514;2024-01-30T12:42:12;13.07;;;8.23;;
1585;SDS011;786;48.718;9.514;2024-01-30T12:44:38;12.57;;;7.55;;
1585;SDS011;786;48.718;9.514;2024-01-30T12:47:05;8.70;;;7.28;;
1585;SDS011;786;48.718;9.514;2024-01-30T12:49:32;10.25;;;8.10;;
1585;SDS011;786;48.718;9.514;2024-01-30T12:51:58;8.00;;;7.13;;
1585;SDS011;786;48.718;9.514;2024-01-30T12:54:24;9.15;;;7.18;;
1585;SDS011;786;48.718;9.514;2024-01-30T12:56:52;10.05;;;7.10;;
1585;SDS011;786;48.718;9.514;2024-01-30T12:59:18;9.73;;;6.47;;
1585;SDS011;786;48.718;9.514;2024-01-30T13:01:45;8.90;;;6.53;;
1585;SDS011;786;48.718;9.514;2024-01-30T13:04:11;10.27;;;7.75;;
1585;SDS011;786;48.718;9.514;2024-01-30T13:06:38;7.95;;;7.00;;
1585;SDS011;786;48.718;9.514;2024-01-30T13:09:04;9.05;;;7.05;;
1585;SDS011;786;48.718;9.514;2024-01-30T13:11:31;11.95;;;8.18;;
1585;SDS011;786;48.718;9.514;2024-01-30T13:13:59;10.25;;;8.85;;
1585;SDS011;786;48.718;9.514;2024-01-30T13:16:25;14.60;;;8.50;;
1585;SDS011;786;48.718;9.514;2024-01-30T13:18:51;11.45;;;9.52;;
1585;SDS011;786;48.718;9.514;2024-01-30T13:21:20;11.40;;;9.70;;
1585;SDS011;786;48.718;9.514;2024-01-30T13:23:46;17.75;;;9.98;;
1585;SDS011;786;48.718;9.514;2024-01-30T13:26:13;12.60;;;8.93;;
1585;SDS011;786;48.718;9.514;2024-01-30T13:28:39;12.75;;;9.23;;
1585;SDS011;786;48.718;9.514;2024-01-30T13:31:07;12.15;;;9.80;;
1585;SDS011;786;48.718;9.514;2024-01-30T13:33:33;13.48;;;10.05;;
1585;SDS011;786;48.718;9.514;2024-01-30T13:36:00;13.45;;;9.55;;
1585;SDS011;786;48.718;9.514;2024-01-30T13:38:26;16.60;;;11.00;;
1585;SDS011;786;48.718;9.514;2024-01-30T13:40:52;13.95;;;10.73;;
1585;SDS011;786;48.718;9.514;2024-01-30T13:43:19;13.68;;;10.73;;
1585;SDS011;786;48.718;9.514;2024-01-30T13:45:45;13.38;;;9.85;;
1585;SDS011;786;48.718;9.514;2024-01-30T13:48:13;15.30;;;9.32;;
1585;SDS011;786;48.718;9.514;2024-01-30T13:50:39;12.65;;;9.23;;
1585;SDS011;786;48.718;9.514;2024-01-30T13:53:06;12.23;;;9.95;;
1585;SDS011;786;48.718;9.514;2024-01-30T13:55:33;13.07;;;10.85;;
1585;SDS011;786;48.718;9.514;2024-01-30T13:58:00;13.98;;;9.70;;
1585;SDS011;786;48.718;9.514;2024-01-30T14:00:26;11.27;;;9.80;;
1585;SDS011;786;48.718;9.514;2024-01-30T14:02:53;12.07;;;8.85;;
1585;SDS011;786;48.718;9.514;2024-01-30T14:05:21;12.90;;;8.60;;
1585;SDS011;786;48.718;9.514;2024-01-30T14:07:48;11.88;;;9.65;;
1585;SDS011;786;48.718;9.514;2024-01-30T14:10:15;11.73;;;9.13;;
1585;SDS011;786;48.718;9.514;2024-01-30T14:12:41;12.50;;;9.20;;
1585;SDS011;786;48.718;9.514;2024-01-30T14:15:10;10.98;;;8.00;;
1585;SDS011;786;48.718;9.514;2024-01-30T14:17:37;13.05;;;8.10;;
1585;SDS011;786;48.718;9.514;2024-01-30T14:20:04;8.95;;;7.57;;
1585;SDS011;786;48.718;9.514;2024-01-30T14:22:33;10.18;;;7.93;;
1585;SDS011;786;48.718;9.514;2024-01-30T14:24:59;10.05;;;7.63;;
1585;SDS011;786;48.718;9.514;2024-01-30T14:27:28;10.05;;;8.00;;
1585;SDS011;786;48.718;9.514;2024-01-30T14:29:55;10.93;;;7.10;;
1585;SDS011;786;48.718;9.514;2024-01-30T14:32:21;8.60;;;7.50;;
1585;SDS011;786;48.718;9.514;2024-01-30T14:34:48;10.45;;;7.07;;
1585;SDS011;786;48.718;9.514;2024-01-30T14:37:14;11.63;;;7.22;;
1585;SDS011;786;48.718;9.514;2024-01-30T14:39:42;8.73;;;6.50;;
1585;SDS011;786;48.718;9.514;2024-01-30T14:42:09;10.50;;;6.70;;
1585;SDS011;786;48.718;9.514;2024-01-30T14:44:35;9.80;;;6.10;;
1585;SDS011;786;48.718;9.514;2024-01-30T14:47:02;7.60;;;6.03;;
1585;SDS011;786;48.718;9.514;2024-01-30T14:49:28;11.45;;;7.13;;
1585;SDS011;786;48.718;9.514;2024-01-30T14:51:55;8.70;;;7.68;;
1585;SDS011;786;48.718;9.514;2024-01-30T14:54:23;8.10;;;6.68;;
1585;SDS011;786;48.718;9.514;2024-01-30T14:56:51;11.38;;;6.82;;
1585;SDS011;786;48.718;9.514;2024-01-30T14:59:17;8.25;;;6.60;;
1585;SDS011;786;48.718;9.514;2024-01-30T15:01:43;9.90;;;7.00;;
1585;SDS011;786;48.718;9.514;2024-01-30T15:04:10;9.27;;;6.90;;
1585;SDS011;786;48.718;9.514;2024-01-30T15:06:36;9.68;;;6.43;;
1585;SDS011;786;48.718;9.514;2024-01-30T15:09:03;12.00;;;7.22;;
1585;SDS011;786;48.718;9.514;2024-01-30T15:11:30;9.75;;;7.32;;